METAR Data
IDs: Format: Raw Decoded Include TAF

Data at: 1725 UTC 03 Jun 2020

METAR for:MSSS (Ilopango Arpt, --, ES)
Text:MSSS 031650Z 16007KT 5000 BR SCT014 23/22 Q1015 A2998
Temperature: 23.0°C ( 73°F)
Dewpoint: 22.0°C ( 72°F) [RH = 94%]
Pressure (altimeter):29.97 inches Hg (1015.0 mb)
Winds:from the SSE (160 degrees) at 8 MPH (7 knots; 3.6 m/s)
Visibility: 3 sm ( 5 km)
Ceiling:at least 12,000 feet AGL
Clouds: scattered clouds at 1400 feet AGL
Weather:BR (mist)

TAF for:MSSS (Ilopango Arpt, --, ES) issued at 1525 UTC 03 Jun 2020
Text:TAF MSSS 031525Z 0318/0418 17006KT 4000 RA BKN017 TX25/0320Z TN22/0407Z
Forecast period:1800 UTC 03 June 2020 to 0400 UTC 04 June 2020
Forecast type:FROM: standard forecast or significant change
Winds:from the S (170 degrees) at 7 MPH (6 knots; 3.1 m/s)
Visibility: 2.49 sm ( 4.01 km)
Ceiling:1700 feet AGL
Clouds: broken clouds at 1700 feet AGL
Weather:RA (moderate rain)
Text:FM040400 03004KT
Forecast period:0400 to 1800 UTC 04 June 2020
Forecast type:FROM: standard forecast or significant change
Winds:from the NNE (30 degrees) at 5 MPH (4 knots; 2.1 m/s)
Clouds:missing